Have a Safe July 4th! 

Flight Track Log - Related Links

Times and Time Zones

All times are in EDT time to prevent confusion due to time zone crossing. See the N9AP flight status page for this flight to view local times or setup timezone preferences in your user account.

Time Position Orientation Groundspeed Altitude Reporting Facility
EDT Latitude Longitude Course Direction KTS MPH feet Rate Location/Type
Mon 01:25:43 PM 41.5256 -81.6647 346° North 96 110 1,200  Level Cleveland Center
Mon 01:27:13 PM 41.5878 -81.6853 North 136 157 2,000 477 Climbing Cleveland Center
Mon 01:28:14 PM 41.6233 -81.6803 52° Northeast 152 175 2,400 466 Climbing Cleveland Center
Mon 01:29:09 PM 41.6444 -81.6447 73° East 139 160 2,900 470 Climbing Cleveland Center
Mon 01:30:09 PM 41.6553 -81.5975 73° East 154 177 3,300 645 Climbing Cleveland Center
Mon 01:31:10 PM 41.6661 -81.5506 71° East 132 152 4,200 885 Climbing Cleveland Center
Mon 01:32:11 PM 41.6792 -81.5006 76° East 128 147 5,100 793 Climbing Cleveland Center
Mon 01:33:11 PM 41.6878 -81.4533 67° East 131 151 5,800 694 Climbing Cleveland Center
Mon 01:34:12 PM 41.7028 -81.4064 70° East 134 154 6,500 595 Climbing Cleveland Center
Mon 01:35:12 PM 41.7156 -81.3592 71° East 135 155 7,000 298 Climbing Cleveland Center
Mon 01:36:13 PM 41.7325 -81.2928 78° East 173 199 7,100 49 Climbing Cleveland Center
Mon 01:37:14 PM 41.7433 -81.2261 78° East 185 213 7,100 -8 Level Cleveland Center
Mon 02:02:00 PM 42.0111 -79.5044 78° East 176 203 6,900 -8 Descending Cleveland Center
Mon 02:03:00 PM 42.0211 -79.4400 79° East 176 203 6,900  Level Cleveland Center
Mon 02:04:00 PM 42.0308 -79.3700 81° East 176 203 6,900  Level Cleveland Center
Mon 02:05:00 PM 42.0383 -79.3056 74° East 176 203 6,900 50 Level Cleveland Center
Mon 02:06:00 PM 42.0503 -79.2494 81° East 257 296 7,000 50 Climbing Cleveland Center
Mon 02:07:00 PM 42.0597 -79.1681 76° East 197 227 7,000  Level Cleveland Center
Mon 02:08:00 PM 42.0714 -79.1064 81° East 175 201 7,000  Level Cleveland Center
Mon 02:09:00 PM 42.0789 -79.0444 79° East 167 192 7,000  Level Cleveland Center
Mon 02:10:00 PM 42.0883 -78.9772 80° East 167 192 7,000  Level Cleveland Center
Mon 02:11:00 PM 42.0978 -78.9042 80° East 188 216 7,000 -350 Level Cleveland Center
Mon 02:12:00 PM 42.1072 -78.8311 81° East 188 216 6,300 -650 Descending Cleveland Center
Mon 02:13:00 PM 42.1164 -78.7553 78° East 199 229 5,700 -550 Descending Cleveland Center
Mon 02:14:00 PM 42.1278 -78.6822 78° East 199 229 5,200 -600 Descending Cleveland Center
Mon 02:15:00 PM 42.1392 -78.6119 76° East 199 229 4,500 -500 Descending Cleveland Center
Mon 02:16:00 PM 42.1506 -78.5497 70° East 199 229 4,200 -300 Descending Cleveland Center
Mon 02:17:00 PM 42.1661 -78.4906 69° East 178 205 3,900 -350 Descending Cleveland Center
Mon 02:18:00 PM 42.1817 -78.4367 48° Northeast 156 180 3,500 -400 Descending Cleveland Center
Mon 02:19:00 PM 42.2103 -78.3936 48° Northeast 150 173 3,100 -400 Descending Cleveland Center

Login

Don't have an account? Register now (free) for customized features, flight alerts, and more!